Home > Products > Valid Products > TAF

000
FTUS45 KVEF 200500
TAFBIH
TAF
KBIH 200532Z 2006/2106 30004KT P6SM BKN200
     FM201200 VRB05KT P6SM FEW080 BKN140 OVC200
     FM210200 35005KT P6SM SCT080 BKN140 BKN200=



000
FTUS45 KVEF 200500
TAFLAS
TAF
KLAS 200532Z 2006/2106 21006KT P6SM FEW150 BKN200
     FM201700 VRB05KT P6SM FEW100 SCT150 BKN200
     FM210300 21006KT P6SM FEW100 SCT150 BKN200=



000
FTUS45 KVEF 200500
TAFDAG
TAF
KDAG 200532Z 2006/2106 17005KT P6SM BKN200
     FM200800 26006KT P6SM SCT140 BKN200
     FM201700 28008KT P6SM SCT140 BKN200=



000
FTUS45 KVEF 200500
TAFVGT
TAF
KVGT 200532Z 2006/2106 33004KT P6SM FEW150 BKN200
     FM201700 VRB05KT P6SM FEW100 SCT150 BKN200
     FM210300 34003KT P6SM FEW100 SCT150 BKN200=



000
FTUS45 KVEF 200500
TAFEED
TAF
KEED 200532Z 2006/2106 30005KT P6SM BKN200
     FM201800 36006KT P6SM FEW140 BKN200
     FM210300 30005KT P6SM FEW100 SCT140 BKN200=



000
FTUS45 KVEF 200500
TAFLAS
TAF
KLAS 200532Z 2006/2106 21006KT P6SM FEW150 BKN200
     FM201700 VRB05KT P6SM FEW100 SCT150 BKN200
     FM210300 21006KT P6SM FEW100 SCT150 BKN200=



000
FTUS45 KVEF 200200 AAA
TAFLAS
TAF AMD
KLAS 200248Z 2003/2024 21003KT P6SM OVC200
     FM201700 VRB05KT P6SM SCT150 BKN200=



000
FTUS45 KVEF 192300
TAFLAS
TAF
KLAS 192321Z 2000/2024 VRB05KT P6SM BKN250
     FM200200 21006KT P6SM SCT150 BKN200
     FM201700 VRB05KT P6SM SCT150 BKN200=



000
FTUS45 KVEF 192300
TAFEED
TAF
KEED 192321Z 2000/2024 VRB03KT P6SM SCT250
     FM200400 29004KT P6SM FEW140 BKN200
     FM201800 36006KT P6SM FEW140 BKN200=



000
FTUS45 KVEF 192300
TAFBIH
TAF
KBIH 192321Z 2000/2024 18005KT P6SM BKN150 BKN200
     FM200200 31003KT P6SM BKN140 BKN200
     FM201200 VRB05KT P6SM FEW080 BKN140 OVC200=



000
FTUS45 KVEF 192300
TAFVGT
TAF
KVGT 192321Z 2000/2024 VRB05KT P6SM BKN250
     FM200200 32005KT P6SM SCT150 BKN200
     FM201700 VRB05KT P6SM SCT150 BKN200=



000
FTUS45 KVEF 192300
TAFDAG
TAF
KDAG 192321Z 2000/2024 VRB05KT P6SM BKN250
     FM200400 26004KT P6SM SCT140 BKN200
     FM201700 28008KT P6SM SCT140 BKN200=



000
FTUS45 KVEF 192300
TAFLAS
TAF
KLAS 192321Z 2000/2024 VRB05KT P6SM BKN250
     FM200200 21006KT P6SM SCT150 BKN200
     FM201700 VRB05KT P6SM SCT150 BKN200=



000
FTUS45 KVEF 192000 AAA
TAFLAS
TAF AMD
KLAS 192051Z 1921/2018 VRB05KT P6SM FEW080 SCT250
     FM200200 21006KT P6SM SCT150 BKN200=



000
FTUS45 KVEF 192000 AAA
TAFLAS
TAF AMD
KLAS 192051Z 1921/2018 VRB05KT P6SM FEW080 SCT250
     FM200200 21006KT P6SM SCT150 BKN200=



000
FTUS45 KVEF 191700
TAFBIH
TAF
KBIH 191720Z 1918/2018 34003KT P6SM SCT030 BKN200
      TEMPO 1918/1919 BKN030
     FM192000 18005KT P6SM BKN200
     FM200200 31003KT P6SM SCT140 BKN200
     FM201200 VRB05KT P6SM BKN140 OVC200=



000
FTUS45 KVEF 191700
TAFEED
TAF
KEED 191720Z 1918/2018 VRB03KT P6SM BKN250
     FM200200 29004KT P6SM FEW140 SCT200=



000
FTUS45 KVEF 191700
TAFDAG
TAF
KDAG 191720Z 1918/2018 28007KT P6SM SCT250
     FM192000 VRB05KT P6SM BKN250
     FM200400 26004KT P6SM SCT140 BKN200=



000
FTUS45 KVEF 191700
TAFVGT
TAF
KVGT 191720Z 1918/2018 VRB05KT P6SM BKN250
     FM200300 32005KT P6SM SCT150 BKN200=



000
FTUS45 KVEF 191700
TAFLAS
TAF
KLAS 191720Z 1918/2018 VRB05KT P6SM BKN250
     FM200200 21006KT P6SM SCT150 BKN200=



000
FTUS45 KVEF 191700
TAFLAS
TAF
KLAS 191720Z 1918/2018 VRB05KT P6SM BKN250
     FM200200 21006KT P6SM SCT150 BKN200=



000
FTUS45 KVEF 191400 AAA
TAFLAS
TAF AMD
KLAS 191432Z 1915/2012 19007KT P6SM BKN250
     FM191600 VRB05KT P6SM SCT150 BKN250
     FM200200 21006KT P6SM SCT140 BKN200=



000
FTUS45 KVEF 191400 AAA
TAFLAS
TAF AMD
KLAS 191432Z 1915/2012 19007KT P6SM BKN250
     FM191600 VRB05KT P6SM SCT150 BKN250
     FM200200 21006KT P6SM SCT140 BKN200=



000
FTUS45 KVEF 191400 AAA
TAFBIH
TAF AMD
KBIH 191431Z 1915/2012 34003KT P6SM BKN025
     FM191700 34003KT P6SM SCT025 BKN200
     FM192000 18005KT P6SM BKN200
     FM200200 31003KT P6SM SCT140 BKN200=



000
FTUS45 KVEF 191100
TAFLAS
TAF
KLAS 191120Z 1912/2012 19007KT P6SM SCT250
     FM191600 VRB05KT P6SM SCT150 BKN250
     FM200200 21006KT P6SM SCT140 BKN200=



000
FTUS45 KVEF 191100
TAFEED
TAF
KEED 191120Z 1912/2012 24004KT P6SM SKC
     FM191500 VRB03KT P6SM SCT250
     FM200200 29004KT P6SM FEW140 SCT200=



000
FTUS45 KVEF 191100
TAFLAS
TAF
KLAS 191120Z 1912/2012 19007KT P6SM SCT250
     FM191600 VRB05KT P6SM SCT150 BKN250
     FM200200 21006KT P6SM SCT140 BKN200=



000
FTUS45 KVEF 191100
TAFVGT
TAF
KVGT 191120Z 1912/2012 34003KT P6SM SCT250
     FM191600 VRB05KT P6SM SCT150 BKN250
     FM200300 32005KT P6SM SCT140 BKN200=



000
FTUS45 KVEF 191100
TAFBIH
TAF
KBIH 191120Z 1912/2012 34003KT P6SM BKN200
     FM192000 18005KT P6SM BKN200
     FM200200 31003KT P6SM SCT140 BKN200=



000
FTUS45 KVEF 191100
TAFDAG
TAF
KDAG 191120Z 1912/2012 VRB03KT P6SM BKN250
     FM200400 26004KT P6SM SCT140 BKN200=



000
FTUS45 KVEF 190800 AAA
TAFLAS
TAF AMD
KLAS 190845Z 1909/2006 20008KT P6SM FEW250
     FM191600 VRB05KT P6SM SCT150 BKN250
     FM200200 21006KT P6SM SCT140 BKN200=



000
FTUS45 KVEF 190800 AAA
TAFLAS
TAF AMD
KLAS 190845Z 1909/2006 20008KT P6SM FEW250
     FM191600 VRB05KT P6SM SCT150 BKN250
     FM200200 21006KT P6SM SCT140 BKN200=



000
FTUS45 KVEF 190500
TAFLAS
TAF
KLAS 190530Z 1906/2006 20006KT P6SM SKC
     FM191600 VRB05KT P6SM SCT150 BKN250
     FM200200 21006KT P6SM SCT140 BKN200=



000
FTUS45 KVEF 190500
TAFLAS
TAF
KLAS 190530Z 1906/2006 20006KT P6SM SKC
     FM191600 VRB05KT P6SM SCT150 BKN250
     FM200200 21006KT P6SM SCT140 BKN200=



000
FTUS45 KVEF 190500
TAFBIH
TAF
KBIH 190530Z 1906/2006 35005KT P6SM BKN250
     FM190900 VRB04KT P6SM BKN200
     FM192000 18005KT P6SM BKN200
     FM200200 31003KT P6SM SCT140 BKN200=



000
FTUS45 KVEF 190500
TAFVGT
TAF
KVGT 190530Z 1906/2006 32005KT P6SM SKC
     FM191600 VRB05KT P6SM SCT150 BKN250
     FM200300 32005KT P6SM SCT140 BKN200=



000
FTUS45 KVEF 190500
TAFDAG
TAF
KDAG 190530Z 1906/2006 27005KT P6SM BKN250
     FM191900 VRB03KT P6SM BKN250
     FM200400 26004KT P6SM SCT140 BKN200=



000
FTUS45 KVEF 190500
TAFEED
TAF
KEED 190530Z 1906/2006 30006KT P6SM SKC
     FM191500 VRB03KT P6SM SCT250
     FM200200 29004KT P6SM FEW140 SCT200=



000
FTUS45 KVEF 190200 AAA
TAFLAS
TAF AMD
KLAS 190247Z 1903/1924 17005KT P6SM SKC
     FM191600 VRB05KT P6SM SCT150 BKN250=



000
FTUS45 KVEF 190200 AAA
TAFLAS
TAF AMD
KLAS 190247Z 1903/1924 17005KT P6SM SKC
     FM191600 VRB05KT P6SM SCT150 BKN250=



000
FTUS45 KVEF 182300
TAFEED
TAF
KEED 182320Z 1900/1924 VRB04KT P6SM FEW080 SCT100
     FM190200 29005KT P6SM SCT250
     FM191800 36004KT P6SM SCT250=



000
FTUS45 KVEF 182300
TAFVGT
TAF
KVGT 182320Z 1900/1924 VRB04KT P6SM SCT060
     FM190300 33005KT P6SM FEW060 SCT250
     FM190900 27004KT P6SM SCT250
     FM191600 VRB05KT P6SM SCT150 BKN250=



000
FTUS45 KVEF 182300
TAFLAS
TAF
KLAS 182320Z 1900/1924 VRB04KT P6SM FEW030 SCT050
      TEMPO 1900/1902 BKN050
     FM190200 21004KT P6SM FEW050 SCT250
     FM191600 VRB05KT P6SM SCT150 BKN250=



000
FTUS45 KVEF 182300
TAFLAS
TAF
KLAS 182320Z 1900/1924 VRB04KT P6SM FEW030 SCT050
      TEMPO 1900/1902 BKN050
     FM190200 21004KT P6SM FEW050 SCT250
     FM191600 VRB05KT P6SM SCT150 BKN250=



000
FTUS45 KVEF 182300
TAFDAG
TAF
KDAG 182320Z 1900/1924 28005KT P6SM FEW100
     FM190600 28005KT P6SM SCT250=



000
FTUS45 KVEF 182300
TAFBIH
TAF
KBIH 182320Z 1900/1924 VRB04KT P6SM FEW060
     FM190300 33004KT P6SM FEW060 SCT250
     FM190900 VRB04KT P6SM BKN200
     FM191700 18005KT P6SM BKN200=



000
FTUS45 KVEF 182000 AAB
TAFLAS
TAF AMD
KLAS 182047Z 1821/1918 VRB04KT P6SM FEW030 SCT050
      TEMPO 1821/1823 BKN050
     FM190200 21004KT P6SM FEW080 SCT250=



000
FTUS45 KVEF 182000 AAB
TAFLAS
TAF AMD
KLAS 182047Z 1821/1918 VRB04KT P6SM FEW030 SCT050
      TEMPO 1821/1823 BKN050
     FM190200 21004KT P6SM FEW080 SCT250=



000
FTUS45 KVEF 181800 AAA
TAFLAS
TAF AMD
KLAS 181819Z 1818/1918 VRB04KT P6SM FEW020 BKN040 BKN060
     FM182000 VRB04KT P6SM SCT040 SCT100
     FM190200 21004KT P6SM FEW080 SCT250=



000
FTUS45 KVEF 181700
TAFEED
TAF
KEED 181720Z 1818/1918 VRB04KT P6SM FEW080 SCT100
     FM190200 27005KT P6SM FEW100=



000
FTUS45 KVEF 181700
TAFVGT
TAF
KVGT 181720Z 1818/1918 34005KT P6SM FEW020 SCT040 BKN060
     FM182000 VRB04KT P6SM FEW040 SCT100
     FM190300 33005KT P6SM FEW080 SCT250=



000
FTUS45 KVEF 181700
TAFBIH
TAF
KBIH 181720Z 1818/1918 VRB04KT P6SM FEW030
     FM181900 VRB04KT P6SM SCT100
     FM190300 23004KT P6SM FEW100 SCT250=



000
FTUS45 KVEF 181700
TAFLAS
TAF
KLAS 181720Z 1818/1918 VRB04KT P6SM FEW020 SCT040 BKN060
     FM182000 VRB04KT P6SM FEW040 SCT100
     FM190200 21004KT P6SM FEW080 SCT250=



000
FTUS45 KVEF 181700
TAFDAG
TAF
KDAG 181720Z 1818/1918 28005KT P6SM FEW100=



000
FTUS45 KVEF 181700
TAFLAS
TAF
KLAS 181720Z 1818/1918 VRB04KT P6SM FEW020 SCT040 BKN060
     FM182000 VRB04KT P6SM FEW040 SCT100
     FM190200 21004KT P6SM FEW080 SCT250=



000
FTUS45 KVEF 181400 AAB
TAFLAS
TAF AMD
KLAS 181443Z 1815/1912 20006KT P6SM FEW009 SCT035 BKN060
     FM181700 VRB04KT P6SM SCT035 SCT060 SCT100
     FM182000 VRB04KT P6SM FEW060 SCT100
     FM190200 21004KT P6SM FEW080 SCT250=



000
FTUS45 KVEF 181400 AAB
TAFLAS
TAF AMD
KLAS 181443Z 1815/1912 20006KT P6SM FEW009 SCT035 BKN060
     FM181700 VRB04KT P6SM SCT035 SCT060 SCT100
     FM182000 VRB04KT P6SM FEW060 SCT100
     FM190200 21004KT P6SM FEW080 SCT250=



000
FTUS45 KVEF 181400 AAC
TAFVGT
TAF AMD
KVGT 181443Z 1815/1912 35006KT P6SM VCSH SCT035 BKN060
     FM181700 34005KT P6SM SCT035 SCT060 SCT100
     FM182000 VRB04KT P6SM FEW060 SCT100
     FM190300 33005KT P6SM FEW080 SCT250=



000
FTUS45 KVEF 181300 AAB
TAFEED
TAF AMD
KEED 181347Z 1814/1912 VRB03KT P6SM VCSH SCT030 OVC080
     FM181700 VRB04KT P6SM FEW060 SCT100
     FM190200 27005KT P6SM SCT100=



000
FTUS45 KVEF 181300 AAB
TAFEED
TAF AMD
KEED 181347Z 1814/1912 VRB03KT P6SM VCSH SCT030 OVC080
     FM181700 VRB04KT P6SM FEW060 SCT100
     FM190200 27005KT P6SM SCT100=



000
FTUS45 KVEF 181300 AAB
TAFBIH
TAF AMD
KBIH 181346Z 1814/1912 29003KT P6SM FEW018 SCT025 OVC045
     FM181700 VRB04KT P6SM SCT030 BKN060
     FM181900 VRB04KT P6SM SCT100
     FM190300 23004KT P6SM FEW100 SCT250=



000
FTUS45 KVEF 181300 AAB
TAFBIH
TAF AMD
KBIH 181346Z 1814/1912 29003KT P6SM FEW018 SCT025 OVC045
     FM181700 VRB04KT P6SM SCT030 BKN060
     FM181900 VRB04KT P6SM SCT100
     FM190300 23004KT P6SM FEW100 SCT250=



000
FTUS45 KVEF 181300 AAB
TAFVGT
TAF AMD
KVGT 181345Z 1814/1912 35006KT P6SM VCSH BKN020 BKN035
     FM181700 34005KT P6SM SCT035 SCT060 SCT100
     FM182000 VRB04KT P6SM FEW060 SCT100
     FM190300 33005KT P6SM FEW080 SCT250=



000
FTUS45 KVEF 181300 AAA
TAFLAS
TAF AMD
KLAS 181345Z 1814/1912 20006KT P6SM BKN020 BKN035
      TEMPO 1814/1817 SCT007 BKN015
     FM181700 VRB04KT P6SM SCT035 SCT060 SCT100
     FM182000 VRB04KT P6SM FEW060 SCT100
     FM190200 21004KT P6SM FEW080 SCT250=



000
FTUS45 KVEF 181300 AAA
TAFLAS
TAF AMD
KLAS 181345Z 1814/1912 20006KT P6SM BKN020 BKN035
      TEMPO 1814/1817 SCT007 BKN015
     FM181700 VRB04KT P6SM SCT035 SCT060 SCT100
     FM182000 VRB04KT P6SM FEW060 SCT100
     FM190200 21004KT P6SM FEW080 SCT250=



000
FTUS45 KVEF 181300 AAA
TAFLAS
TAF AMD
KLAS 181345Z 1814/1912 20006KT P6SM BKN020 BKN035
      TEMPO 1814/1817 SCT007 BKN015
     FM181700 VRB04KT P6SM SCT035 SCT060 SCT100
     FM182000 VRB04KT P6SM FEW060 SCT100
     FM190200 21004KT P6SM FEW080 SCT250=



000
FTUS45 KVEF 181300 AAB
TAFVGT
TAF AMD
KVGT 181345Z 1814/1912 35006KT P6SM VCSH BKN020 BKN035
     FM181700 34005KT P6SM SCT035 SCT060 SCT100
     FM182000 VRB04KT P6SM FEW060 SCT100
     FM190300 33005KT P6SM FEW080 SCT250=



000
FTUS45 KVEF 181300 AAA
TAFLAS
TAF AMD
KLAS 181345Z 1814/1912 20006KT P6SM BKN020 BKN035
      TEMPO 1814/1817 SCT007 BKN015
     FM181700 VRB04KT P6SM SCT035 SCT060 SCT100
     FM182000 VRB04KT P6SM FEW060 SCT100
     FM190200 21004KT P6SM FEW080 SCT250=



000
FTUS45 KVEF 181200 AAA
TAFEED
TAF AMD
KEED 181225Z 1812/1912 VRB03KT P6SM VCSH SCT030 OVC080
      TEMPO 1812/1815 BKN025 OVC080
     FM181500 VRB04KT P6SM FEW060 SCT100
     FM190200 27005KT P6SM SCT100=



000
FTUS45 KVEF 181200 AAA
TAFEED
TAF AMD
KEED 181225Z 1812/1912 VRB03KT P6SM VCSH SCT030 OVC080
      TEMPO 1812/1815 BKN025 OVC080
     FM181500 VRB04KT P6SM FEW060 SCT100
     FM190200 27005KT P6SM SCT100=



000
FTUS45 KVEF 181200 AAA
TAFBIH
TAF AMD
KBIH 181214Z 1812/1912 29003KT P6SM FEW018 SCT025 OVC045
      TEMPO 1812/1815 BKN018 OVC045
     FM181500 VRB04KT P6SM SCT030 BKN060
     FM181700 VRB04KT P6SM SCT100
     FM190300 23004KT P6SM FEW100 SCT250=



000
FTUS45 KVEF 181200 AAA
TAFVGT
TAF AMD
KVGT 181213Z 1812/1912 08003KT P6SM SCT012 BKN020 BKN080
      TEMPO 1812/1815 BKN012 OVC020
     FM181500 34005KT P6SM SCT020 SCT060 BKN100
     FM182000 VRB04KT P6SM FEW060 SCT100
     FM190300 33005KT P6SM FEW080 SCT250=



000
FTUS45 KVEF 181100
TAFLAS
TAF
KLAS 181120Z 1812/1912 20006KT P6SM FEW025 OVC080
     FM181500 VRB04KT P6SM SCT060 BKN100
     FM182000 VRB04KT P6SM FEW060 SCT100
     FM190200 21004KT P6SM FEW080 SCT250=



000
FTUS45 KVEF 181100
TAFLAS
TAF
KLAS 181120Z 1812/1912 20006KT P6SM FEW025 OVC080
     FM181500 VRB04KT P6SM SCT060 BKN100
     FM182000 VRB04KT P6SM FEW060 SCT100
     FM190200 21004KT P6SM FEW080 SCT250=



000
FTUS45 KVEF 181100
TAFVGT
TAF
KVGT 181120Z 1812/1912 08003KT P6SM FEW060 OVC090
     FM181500 34005KT P6SM SCT060 BKN100
     FM182000 VRB04KT P6SM FEW060 SCT100
     FM190300 33005KT P6SM FEW080 SCT250=



000
FTUS45 KVEF 181100
TAFEED
TAF
KEED 181120Z 1812/1912 VRB03KT P6SM VCSH OVC100
     FM181500 VRB04KT P6SM FEW060 SCT100
     FM190200 27005KT P6SM SCT100=



000
FTUS45 KVEF 181100
TAFDAG
TAF
KDAG 181120Z 1812/1912 31007KT P6SM SCT200
     FM181500 28005KT P6SM SCT100=



000
FTUS45 KVEF 181100
TAFBIH
TAF
KBIH 181120Z 1812/1912 29003KT P6SM BKN019 OVC045
     FM181500 VRB04KT P6SM SCT030 BKN060
     FM181700 VRB04KT P6SM SCT100
     FM190300 23004KT P6SM FEW100 SCT250=



000
FTUS45 KVEF 180900 AAA
TAFBIH
TAF AMD
KBIH 180939Z 1810/1906 31006KT P6SM VCSH BKN023
     FM181500 VRB04KT P6SM SCT100
     FM190300 23004KT P6SM FEW100 SCT250=



000
FTUS45 KVEF 180800 AAA
TAFLAS
TAF AMD
KLAS 180845Z 1809/1906 VRB04KT P6SM OVC070
     FM181500 VRB04KT P6SM SCT060 BKN100
     FM182000 VRB04KT P6SM FEW060 SCT100
     FM190200 21004KT P6SM FEW080 SCT250=



000
FTUS45 KVEF 180800 AAA
TAFLAS
TAF AMD
KLAS 180845Z 1809/1906 VRB04KT P6SM OVC070
     FM181500 VRB04KT P6SM SCT060 BKN100
     FM182000 VRB04KT P6SM FEW060 SCT100
     FM190200 21004KT P6SM FEW080 SCT250=



000
FTUS45 KVEF 180800 AAA
TAFLAS
TAF AMD
KLAS 180845Z 1809/1906 VRB04KT P6SM OVC070
     FM181500 VRB04KT P6SM SCT060 BKN100
     FM182000 VRB04KT P6SM FEW060 SCT100
     FM190200 21004KT P6SM FEW080 SCT250=



000
FTUS45 KVEF 180800 AAA
TAFLAS
TAF AMD
KLAS 180845Z 1809/1906 VRB04KT P6SM OVC070
     FM181500 VRB04KT P6SM SCT060 BKN100
     FM182000 VRB04KT P6SM FEW060 SCT100
     FM190200 21004KT P6SM FEW080 SCT250=



000
FTUS45 KVEF 180500
TAFLAS
TAF
KLAS 180520Z 1806/1906 15004KT P6SM FEW050 OVC060
     FM180800 20005KT P6SM FEW050 OVC060
      TEMPO 1808/1812 6SM -SHRA FEW040 OVC050
     FM181500 VRB04KT P6SM SCT060 BKN100
     FM182000 VRB04KT P6SM FEW060 SCT100
     FM190200 21004KT P6SM FEW080 SCT250=



000
FTUS45 KVEF 180500
TAFLAS
TAF
KLAS 180520Z 1806/1906 15004KT P6SM FEW050 OVC060
     FM180800 20005KT P6SM FEW050 OVC060
      TEMPO 1808/1812 6SM -SHRA FEW040 OVC050
     FM181500 VRB04KT P6SM SCT060 BKN100
     FM182000 VRB04KT P6SM FEW060 SCT100
     FM190200 21004KT P6SM FEW080 SCT250=



000
FTUS45 KVEF 180500
TAFDAG
TAF
KDAG 180520Z 1806/1906 27003KT P6SM BKN200
     FM181500 28005KT P6SM SCT100=



000
FTUS45 KVEF 180500
TAFEED
TAF
KEED 180520Z 1806/1906 35003KT P6SM SCT030 OVC035
     FM181500 VRB04KT P6SM FEW060 SCT100
     FM190200 31005KT P6SM SCT100=



000
FTUS45 KVEF 180500
TAFVGT
TAF
KVGT 180520Z 1806/1906 10006KT P6SM FEW020 OVC060
      TEMPO 1808/1812 6SM -SHRA FEW040 OVC050
     FM181500 34005KT P6SM SCT060 BKN100
     FM182000 VRB04KT P6SM FEW060 SCT100
     FM190300 33005KT P6SM FEW080 SCT250=



000
FTUS45 KVEF 180500
TAFBIH
TAF
KBIH 180520Z 1806/1906 22003KT P6SM FEW060 BKN200
     FM180800 34005KT P6SM VCSH FEW040 SCT060 BKN080
     FM181500 VRB04KT P6SM SCT100
     FM190300 23004KT P6SM FEW100 SCT250=



000
FTUS45 KVEF 180200 AAA
TAFLAS
TAF AMD
KLAS 180248Z 1803/1824 17006KT P6SM SCT030 BKN060 BKN100
     FM181500 VRB04KT P6SM SCT060 BKN100
     FM182000 VRB04KT P6SM FEW060 SCT100=



000
FTUS45 KVEF 180200 AAA
TAFLAS
TAF AMD
KLAS 180248Z 1803/1824 17006KT P6SM SCT030 BKN060 BKN100
     FM181500 VRB04KT P6SM SCT060 BKN100
     FM182000 VRB04KT P6SM FEW060 SCT100=



000
FTUS45 KVEF 172300
TAFVGT
TAF
KVGT 172320Z 1800/1824 VRB05KT P6SM SCT030 BKN060 BKN100
     FM181500 34005KT P6SM SCT060 BKN100
     FM182000 VRB04KT P6SM FEW060 SCT100=



000
FTUS45 KVEF 172300
TAFDAG
TAF
KDAG 172320Z 1800/1824 VRB04KT P6SM BKN040 OVC050
     FM180400 26010KT P6SM SCT050 BKN100
     FM181500 28005KT P6SM SCT100=



000
FTUS45 KVEF 172300
TAFLAS
TAF
KLAS 172320Z 1800/1824 17006KT P6SM SCT030 BKN060 BKN100
      TEMPO 1800/1804 BKN030
     FM181500 VRB04KT P6SM SCT060 BKN100
     FM182000 VRB04KT P6SM FEW060 SCT100=



000
FTUS45 KVEF 172300
TAFBIH
TAF
KBIH 172320Z 1800/1824 VRB04KT P6SM FEW020 BKN050
     FM180300 35005KT P6SM FEW020 BKN050 BKN100
     FM181500 VRB04KT P6SM SCT100=



000
FTUS45 KVEF 172300
TAFLAS
TAF
KLAS 172320Z 1800/1824 17006KT P6SM SCT030 BKN060 BKN100
      TEMPO 1800/1804 BKN030
     FM181500 VRB04KT P6SM SCT060 BKN100
     FM182000 VRB04KT P6SM FEW060 SCT100=



000
FTUS45 KVEF 172300
TAFEED
TAF
KEED 172320Z 1800/1824 VRB04KT P6SM SCT030 SCT040 BKN070
     FM180400 25006KT P6SM SCT030 BKN050 OVC070
     FM181500 VRB04KT P6SM FEW060 SCT100=



000
FTUS45 KVEF 172100 AAA
TAFEED
TAF AMD
KEED 172104Z 1721/1818 VRB04KT P6SM -SHRA FEW020 BKN035
     FM172300 VRB04KT P6SM SCT030 BKN040 OVC070
     FM180400 25006KT P6SM SCT030 OVC070=



000
FTUS45 KVEF 172100 AAB
TAFLAS
TAF AMD
KLAS 172101Z 1721/1818 17006KT P6SM FEW030 BKN060 BKN100
      TEMPO 1723/1802 BKN050
     FM181500 VRB04KT P6SM SCT050 BKN100=



000
FTUS45 KVEF 172100 AAB
TAFLAS
TAF AMD
KLAS 172101Z 1721/1818 17006KT P6SM FEW030 BKN060 BKN100
      TEMPO 1723/1802 BKN050
     FM181500 VRB04KT P6SM SCT050 BKN100=



000
FTUS45 KVEF 171900 AAA
TAFVGT
TAF AMD
KVGT 171926Z 1719/1818 VRB04KT P6SM FEW030 BKN050 OVC100
     FM172100 VRB05KT P6SM SCT030 BKN050 BKN100
     FM181500 34005KT P6SM SCT050 BKN100=



000
FTUS45 KVEF 171900 AAA
TAFLAS
TAF AMD
KLAS 171925Z 1719/1818 VRB04KT P6SM FEW030 BKN050 OVC100
     FM172100 17006KT P6SM FEW030 SCT050 BKN100
      TEMPO 1723/1802 BKN050
     FM181500 VRB04KT P6SM SCT050 BKN100=



000
FTUS45 KVEF 171900 AAA
TAFLAS
TAF AMD
KLAS 171925Z 1719/1818 VRB04KT P6SM FEW030 BKN050 OVC100
     FM172100 17006KT P6SM FEW030 SCT050 BKN100
      TEMPO 1723/1802 BKN050
     FM181500 VRB04KT P6SM SCT050 BKN100=



000
FTUS45 KVEF 171700
TAFLAS
TAF
KLAS 171738Z 1718/1818 18005KT P6SM -SHRA FEW030 OVC050
     FM172100 17006KT P6SM SCT030 BKN050 OVC070
     FM181500 VRB04KT P6SM SCT050 BKN100=



000
FTUS45 KVEF 171700
TAFVGT
TAF
KVGT 171738Z 1718/1818 VRB04KT P6SM -SHRA FEW030 BKN050 OVC070
     FM172100 VRB05KT P6SM SCT030 BKN050 OVC070
     FM181500 34005KT P6SM SCT050 BKN100=



000
FTUS45 KVEF 171700
TAFBIH
TAF
KBIH 171738Z 1718/1818 VRB04KT P6SM FEW020 FEW050
     FM180300 35005KT P6SM BKN100
     FM181500 VRB04KT P6SM SCT100=



000
FTUS45 KVEF 171700
TAFLAS
TAF
KLAS 171738Z 1718/1818 18005KT P6SM -SHRA FEW030 OVC050
     FM172100 17006KT P6SM SCT030 BKN050 OVC070
     FM181500 VRB04KT P6SM SCT050 BKN100=



000
FTUS45 KVEF 171700
TAFDAG
TAF
KDAG 171738Z 1718/1818 VRB03KT P6SM FEW006 SCT050 OVC070
     FM172000 VRB04KT P6SM SCT050 BKN080
     FM180200 26010KT P6SM SCT080=



000
FTUS45 KVEF 171700
TAFEED
TAF
KEED 171738Z 1718/1818 VRB04KT P6SM -SHRA BKN025 OVC035
     FM172300 VRB04KT P6SM SCT030 BKN040 OVC070
     FM180400 25006KT P6SM SCT030 OVC070=



000
FTUS45 KVEF 171400 AAA
TAFBIH
TAF AMD
KBIH 171448Z 1715/1812 VRB04KT P6SM SCT020 OVC050
      TEMPO 1715/1717 BKN020 OVC050
     FM172000 VRB04KT P6SM VCSH SCT020 OVC040=



000
FTUS45 KVEF 171400 AAA
TAFDAG
TAF AMD
KDAG 171446Z 1715/1812 VRB05KT P6SM -RA SCT035 OVC050
     FM171800 26011KT P6SM VCSH SCT035 BKN050
     FM172000 26012G20KT P6SM VCSH SCT050 BKN080
     FM180200 26010KT P6SM SCT080=



000
FTUS45 KVEF 171400 AAA
TAFLAS
TAF AMD
KLAS 171445Z 1715/1812 19007KT P6SM VCSH BKN050 OVC070
     FM171600 18007KT P6SM VCSH SCT035 OVC050
      TEMPO 1717/1721 -SHRA FEW015 BKN035
     FM172100 17006KT P6SM VCSH SCT015 BKN030 OVC050
     FM180400 21007KT P6SM FEW015 BKN030 OVC050=



000
FTUS45 KVEF 171400 AAA
TAFLAS
TAF AMD
KLAS 171445Z 1715/1812 19007KT P6SM VCSH BKN050 OVC070
     FM171600 18007KT P6SM VCSH SCT035 OVC050
      TEMPO 1717/1721 -SHRA FEW015 BKN035
     FM172100 17006KT P6SM VCSH SCT015 BKN030 OVC050
     FM180400 21007KT P6SM FEW015 BKN030 OVC050=



000
FTUS45 KVEF 171100
TAFVGT
TAF
KVGT 171120Z 1712/1812 VRB04KT P6SM VCSH BKN050 BKN080
     FM171500 VRB04KT P6SM VCSH SCT030 OVC050
      TEMPO 1716/1720 -RA SCT015 OVC030
     FM172100 VRB05KT P6SM FEW015 BKN030 OVC050=



000
FTUS45 KVEF 171100
TAFLAS
TAF
KLAS 171120Z 1712/1812 VRB04KT P6SM VCSH BKN050 BKN080
     FM171500 VRB04KT P6SM VCSH SCT030 OVC050
      TEMPO 1716/1720 -RA SCT015 OVC030
     FM172100 17006KT P6SM VCSH SCT015 BKN030 OVC050
     FM180400 21007KT P6SM FEW015 BKN030 OVC050=



000
FTUS45 KVEF 171100
TAFLAS
TAF
KLAS 171120Z 1712/1812 VRB04KT P6SM VCSH BKN050 BKN080
     FM171500 VRB04KT P6SM VCSH SCT030 OVC050
      TEMPO 1716/1720 -RA SCT015 OVC030
     FM172100 17006KT P6SM VCSH SCT015 BKN030 OVC050
     FM180400 21007KT P6SM FEW015 BKN030 OVC050=



000
FTUS45 KVEF 171100
TAFBIH
TAF
KBIH 171120Z 1712/1812 VRB03KT P6SM BKN015 OVC030
     FM171500 VRB04KT P6SM BKN015 OVC030
     FM172000 VRB04KT P6SM VCSH SCT020 OVC040=



000
FTUS45 KVEF 171100
TAFDAG
TAF
KDAG 171120Z 1712/1812 VRB05KT P6SM -RA FEW008 BKN015 OVC030
     FM171600 26011KT P6SM SCT015 SCT030 BKN050
     FM172000 26012G20KT P6SM VCSH SCT050 BKN080
     FM180200 26010KT P6SM SCT080=



000
FTUS45 KVEF 171100
TAFEED
TAF
KEED 171120Z 1712/1812 VRB03KT P6SM SCT050 OVC070
     FM171500 VRB04KT P6SM VCSH SCT015 OVC030
      TEMPO 1716/1720 -RA BKN015
     FM172100 VRB04KT P6SM SCT015 OVC030
     FM180400 25006KT P6SM SCT030 OVC070=



000
FTUS45 KVEF 170800 AAA
TAFLAS
TAF AMD
KLAS 170848Z 1709/1806 21007KT P6SM VCSH BKN050 OVC070
     FM171200 VRB04KT P6SM SCT015 SCT030 BKN050
     FM171500 VRB04KT 5SM -RA BKN015 OVC030
     FM172100 VRB04KT P6SM SCT010 BKN015 OVC030=



000
FTUS45 KVEF 170800 AAA
TAFLAS
TAF AMD
KLAS 170848Z 1709/1806 21007KT P6SM VCSH BKN050 OVC070
     FM171200 VRB04KT P6SM SCT015 SCT030 BKN050
     FM171500 VRB04KT 5SM -RA BKN015 OVC030
     FM172100 VRB04KT P6SM SCT010 BKN015 OVC030=



000
FTUS45 KVEF 170800 AAA
TAFLAS
TAF AMD
KLAS 170848Z 1709/1806 21007KT P6SM VCSH BKN050 OVC070
     FM171200 VRB04KT P6SM SCT015 SCT030 BKN050
     FM171500 VRB04KT 5SM -RA BKN015 OVC030
     FM172100 VRB04KT P6SM SCT010 BKN015 OVC030=



000
FTUS45 KVEF 170800 AAA
TAFLAS
TAF AMD
KLAS 170848Z 1709/1806 21007KT P6SM VCSH BKN050 OVC070
     FM171200 VRB04KT P6SM SCT015 SCT030 BKN050
     FM171500 VRB04KT 5SM -RA BKN015 OVC030
     FM172100 VRB04KT P6SM SCT010 BKN015 OVC030=



    US Dept of Commerce
    National Oceanic and Atmospheric Administration
    National Weather Service
    1325 East West Highway
    Silver Spring, MD 20910
    Page Author: NWS Internet Services Team
Disclaimer
Information Quality
Credits
Glossary
Privacy Policy
Freedom of Information Act (FOIA)
About Us
Career Opportunities